Time;durP1;ratioP1;P1;durP2;ratioP2;P2;SDS_P1;SDS_P2;PMS_P1;PMS_P2;Temp;Humidity;BMP_temperature;BMP_pressure;BME280_temperature;BME280_humidity;BME280_pressure;Samples;Min_cycle;Max_cycle;Signal;HPM_P1;HPM_P2
2022/05/19 00:01:21;;;;;;;1.13;0.95;;;16.50;38.90;;;;;;5056881;28;20108;-76
2022/05/19 00:03:47;;;;;;;1.92;1.17;;;16.50;39.00;;;;;;5053176;28;20478;-77
2022/05/19 00:06:13;;;;;;;1.70;0.90;;;16.40;38.80;;;;;;5053215;28;20036;-76
2022/05/19 00:08:39;;;;;;;2.72;1.05;;;16.40;39.00;;;;;;5054081;28;20013;-76
2022/05/19 00:11:09;;;;;;;1.42;1.08;;;16.40;38.90;;;;;;5050014;28;20025;-77
2022/05/19 00:13:34;;;;;;;2.40;1.10;;;16.40;39.00;;;;;;5053250;28;20027;-76
2022/05/19 00:16:00;;;;;;;5.38;1.30;;;16.40;39.00;;;;;;5043936;28;20112;-77
2022/05/19 00:18:26;;;;;;;2.13;1.10;;;16.40;38.80;;;;;;5053750;28;20028;-77
2022/05/19 00:20:52;;;;;;;2.25;1.02;;;16.40;38.70;;;;;;5049986;28;20111;-76
2022/05/19 00:23:19;;;;;;;1.52;1.00;;;16.40;38.80;;;;;;5051113;28;20025;-76
2022/05/19 00:25:45;;;;;;;2.97;0.82;;;16.40;38.90;;;;;;5051937;28;20028;-76
2022/05/19 00:28:11;;;;;;;0.82;0.70;;;16.40;39.60;;;;;;5051724;28;20021;-76
2022/05/19 00:30:37;;;;;;;0.95;0.75;;;16.40;38.90;;;;;;5053604;28;20028;-77
2022/05/19 00:33:03;;;;;;;1.55;0.77;;;16.30;38.90;;;;;;5053875;28;20029;-77
2022/05/19 00:35:29;;;;;;;3.13;1.15;;;16.30;38.80;;;;;;5053842;28;20414;-76
2022/05/19 00:37:55;;;;;;;3.70;0.88;;;16.20;38.80;;;;;;5053661;28;20048;-76
2022/05/19 00:40:23;;;;;;;3.28;1.00;;;16.20;38.80;;;;;;5053725;28;20060;-76
2022/05/19 00:42:50;;;;;;;2.72;0.80;;;16.10;39.10;;;;;;5053882;28;20044;-76
2022/05/19 00:45:22;;;;;;;1.45;1.02;;;16.00;39.00;;;;;;5054360;28;20024;-76
2022/05/19 00:47:50;;;;;;;1.52;0.95;;;16.00;39.20;;;;;;5044359;28;20104;-76
2022/05/19 00:50:31;;;;;;;1.20;0.60;;;16.00;39.40;;;;;;5032397;28;20018;-76
2022/05/19 00:53:24;;;;;;;1.23;0.80;;;15.90;39.30;;;;;;5033661;28;20043;-76
2022/05/19 00:55:51;;;;;;;1.85;0.90;;;15.90;39.60;;;;;;5032284;28;20113;-76
2022/05/19 00:58:26;;;;;;;3.35;1.15;;;15.90;39.80;;;;;;5031984;28;20053;-76
2022/05/19 01:00:54;;;;;;;1.92;0.98;;;15.80;40.20;;;;;;5033366;28;20102;-76
2022/05/19 01:03:21;;;;;;;2.05;1.00;;;15.80;40.00;;;;;;5033181;28;20029;-76
2022/05/19 01:05:59;;;;;;;1.65;0.80;;;15.80;39.90;;;;;;5033100;28;20021;-76
2022/05/19 01:08:34;;;;;;;1.25;0.90;;;15.70;39.80;;;;;;5033030;28;20452;-76
2022/05/19 01:11:05;;;;;;;0.90;0.80;;;15.60;40.10;;;;;;5033100;28;20032;-76
2022/05/19 01:13:31;;;;;;;2.42;1.10;;;15.70;40.30;;;;;;5032989;28;20021;-76
2022/05/19 01:15:59;;;;;;;1.52;0.90;;;15.60;40.10;;;;;;5032902;28;20026;-77
2022/05/19 01:18:27;;;;;;;3.17;1.15;;;15.60;40.30;;;;;;5031656;28;20025;-77
2022/05/19 01:20:54;;;;;;;1.50;0.90;;;15.50;40.40;;;;;;5032741;28;20083;-76
2022/05/19 01:23:32;;;;;;;1.50;0.75;;;15.50;40.20;;;;;;5032859;28;20362;-76
2022/05/19 01:26:12;;;;;;;3.03;0.95;;;15.50;40.20;;;;;;5032653;28;20025;-76
2022/05/19 01:28:37;;;;;;;4.32;0.90;;;15.50;40.80;;;;;;5032699;28;20021;-76
2022/05/19 01:31:04;;;;;;;2.22;1.40;;;15.50;40.70;;;;;;5032675;28;20020;-76
2022/05/19 01:33:29;;;;;;;1.08;0.98;;;15.40;40.60;;;;;;5031426;28;20116;-76
2022/05/19 01:35:55;;;;;;;5.55;1.30;;;15.40;40.70;;;;;;5032615;28;20101;-76
2022/05/19 01:38:33;;;;;;;1.27;1.00;;;15.40;40.20;;;;;;5032587;28;20079;-76
2022/05/19 01:41:01;;;;;;;2.50;1.20;;;15.40;40.10;;;;;;5032654;28;20025;-76
2022/05/19 01:43:35;;;;;;;4.07;1.13;;;15.40;39.90;;;;;;5032394;28;20079;-76
2022/05/19 01:46:04;;;;;;;1.00;0.90;;;15.40;40.00;;;;;;5032467;28;20025;-76
2022/05/19 01:48:41;;;;;;;1.98;0.95;;;15.30;40.10;;;;;;5032504;28;20033;-76
2022/05/19 01:51:42;;;;;;;4.88;1.00;;;15.30;40.20;;;;;;5031270;28;20061;-76
2022/05/19 01:54:33;;;;;;;2.20;1.23;;;15.30;40.50;;;;;;5032513;28;20021;-76
2022/05/19 01:57:07;;;;;;;2.35;1.05;;;15.30;41.30;;;;;;5032446;28;20026;-76
2022/05/19 01:59:53;;;;;;;1.13;1.00;;;15.30;41.30;;;;;;5030984;28;20056;-76
2022/05/19 02:02:35;;;;;;;2.60;1.17;;;15.30;41.40;;;;;;5022122;28;20065;-76
2022/05/19 02:05:04;;;;;;;1.48;0.88;;;15.20;41.40;;;;;;5031039;28;20047;-76
2022/05/19 02:07:33;;;;;;;1.83;1.00;;;15.20;41.40;;;;;;5030866;28;20402;-76
2022/05/19 02:10:05;;;;;;;3.30;1.67;;;15.30;41.30;;;;;;5032264;28;20089;-77
2022/05/19 02:12:33;;;;;;;3.03;1.13;;;15.20;41.50;;;;;;5032303;28;20014;-76
2022/05/19 02:15:03;;;;;;;1.33;0.90;;;15.20;41.50;;;;;;5030982;28;20487;-76
2022/05/19 02:17:31;;;;;;;2.92;1.10;;;15.20;41.70;;;;;;5035277;28;20026;-76
2022/05/19 02:20:04;;;;;;;1.55;0.98;;;15.20;41.60;;;;;;5032297;28;20049;-76
2022/05/19 02:22:35;;;;;;;2.15;1.10;;;15.10;41.40;;;;;;5030968;28;20034;-76
2022/05/19 02:25:27;;;;;;;3.72;1.27;;;15.20;41.50;;;;;;5032047;28;20026;-76
2022/05/19 02:27:56;;;;;;;3.83;1.30;;;15.10;41.70;;;;;;5032226;28;20049;-76
2022/05/19 02:30:28;;;;;;;9.25;1.27;;;15.10;41.50;;;;;;5032153;28;20724;-76
2022/05/19 02:32:54;;;;;;;2.83;1.00;;;15.10;41.90;;;;;;5032168;28;20022;-76
2022/05/19 02:35:21;;;;;;;1.95;1.20;;;15.10;41.90;;;;;;5032081;28;20538;-76
2022/05/19 02:37:47;;;;;;;2.35;1.23;;;15.10;41.90;;;;;;5032083;28;20478;-76
2022/05/19 02:40:18;;;;;;;2.63;1.35;;;15.10;42.10;;;;;;5030733;28;20171;-76
2022/05/19 02:42:44;;;;;;;3.38;1.42;;;15.00;42.50;;;;;;5031931;28;20368;-76
2022/05/19 02:45:11;;;;;;;4.05;1.40;;;15.10;42.40;;;;;;5042979;28;20022;-76
2022/05/19 02:47:37;;;;;;;1.58;1.10;;;15.00;43.00;;;;;;5051861;28;20017;-76
2022/05/19 02:50:04;;;;;;;1.70;1.05;;;15.00;42.90;;;;;;5050539;28;20032;-76
2022/05/19 02:52:30;;;;;;;1.70;1.25;;;15.00;42.90;;;;;;5051786;28;20049;-76
2022/05/19 02:54:56;;;;;;;1.58;1.17;;;15.00;43.10;;;;;;5050491;28;20513;-76
2022/05/19 02:57:22;;;;;;;1.55;1.20;;;15.00;43.50;;;;;;5051830;28;20025;-76
2022/05/19 02:59:48;;;;;;;2.53;1.20;;;15.00;43.40;;;;;;5050317;28;20048;-76
2022/05/19 03:02:13;;;;;;;3.95;1.13;;;15.00;43.60;;;;;;5050444;28;20429;-76
2022/05/19 03:04:39;;;;;;;5.25;1.17;;;14.90;43.40;;;;;;5051616;28;20108;-76
2022/05/19 03:07:06;;;;;;;1.85;1.20;;;14.90;43.60;;;;;;5052550;28;20025;-76
2022/05/19 03:09:32;;;;;;;10.05;1.52;;;14.90;43.50;;;;;;5055275;28;20024;-76
2022/05/19 03:11:58;;;;;;;3.00;1.10;;;14.80;43.80;;;;;;5055771;28;20027;-76
2022/05/19 03:14:23;;;;;;;2.40;1.20;;;14.80;43.90;;;;;;5055208;28;20091;-76
2022/05/19 03:16:50;;;;;;;5.45;1.10;;;14.80;43.80;;;;;;5055145;28;20518;-76
2022/05/19 03:19:16;;;;;;;2.58;1.40;;;14.80;44.10;;;;;;5054925;28;20028;-76
2022/05/19 03:21:42;;;;;;;3.00;1.42;;;14.80;44.20;;;;;;5055002;28;20432;-76
2022/05/19 03:24:11;;;;;;;4.18;1.77;;;14.70;44.20;;;;;;5054911;28;20025;-76
2022/05/19 03:26:37;;;;;;;4.13;2.03;;;14.70;44.80;;;;;;5054920;28;20044;-76
2022/05/19 03:29:04;;;;;;;12.13;2.28;;;14.70;44.70;;;;;;5054909;28;20021;-76
2022/05/19 03:31:30;;;;;;;6.63;2.30;;;14.70;44.80;;;;;;5053472;28;20429;-76
2022/05/19 03:33:55;;;;;;;5.03;1.67;;;14.70;45.00;;;;;;5054688;28;20517;-76
2022/05/19 03:36:21;;;;;;;4.63;2.20;;;14.70;44.70;;;;;;5054556;28;20025;-76
2022/05/19 03:38:48;;;;;;;13.35;2.25;;;14.70;44.70;;;;;;5054639;28;20106;-76
2022/05/19 03:41:14;;;;;;;6.93;2.05;;;14.60;44.60;;;;;;5054556;28;20017;-76
2022/05/19 03:43:39;;;;;;;6.30;2.60;;;14.70;44.90;;;;;;5054304;28;20025;-76
2022/05/19 03:46:06;;;;;;;6.68;2.47;;;14.70;45.00;;;;;;5054581;28;20053;-77
2022/05/19 03:48:36;;;;;;;3.70;2.00;;;14.70;45.00;;;;;;5054558;28;20029;-76
2022/05/19 03:51:04;;;;;;;8.40;2.38;;;14.70;45.00;;;;;;5054530;28;20052;-76
2022/05/19 03:53:31;;;;;;;6.03;2.60;;;14.70;45.00;;;;;;5054275;28;20546;-76
2022/05/19 03:55:56;;;;;;;4.18;2.08;;;14.70;45.20;;;;;;5054412;28;20470;-76
2022/05/19 03:58:23;;;;;;;5.50;2.33;;;14.80;45.10;;;;;;5052675;28;20106;-76
2022/05/19 04:00:48;;;;;;;5.75;2.63;;;14.80;45.20;;;;;;5054320;28;20036;-76
2022/05/19 04:03:14;;;;;;;7.57;3.05;;;14.80;45.00;;;;;;5054204;28;20382;-76
2022/05/19 04:05:40;;;;;;;7.32;2.42;;;14.90;45.20;;;;;;5054038;28;20036;-76
2022/05/19 04:08:06;;;;;;;7.43;2.58;;;14.90;45.20;;;;;;5053075;28;20426;-76
2022/05/19 04:10:32;;;;;;;8.95;2.60;;;14.90;45.50;;;;;;5052770;28;20044;-76
2022/05/19 04:12:58;;;;;;;6.43;2.60;;;14.90;45.60;;;;;;5054086;28;20037;-76
2022/05/19 04:15:25;;;;;;;6.80;2.22;;;14.90;45.60;;;;;;5053984;28;20028;-76
2022/05/19 04:17:51;;;;;;;5.28;2.25;;;15.00;45.60;;;;;;5047733;28;20637;-76
2022/05/19 04:20:17;;;;;;;6.45;2.17;;;15.00;45.80;;;;;;5035104;28;20025;-76
2022/05/19 04:22:43;;;;;;;4.38;2.15;;;15.00;45.90;;;;;;5035703;28;20018;-76
2022/05/19 04:25:11;;;;;;;6.60;2.40;;;15.10;46.10;;;;;;5036066;28;20537;-76
2022/05/19 04:27:37;;;;;;;7.45;2.70;;;15.10;46.20;;;;;;5034519;28;20033;-76
2022/05/19 04:30:04;;;;;;;19.23;2.67;;;15.20;46.20;;;;;;5035606;28;20022;-76
2022/05/19 04:32:30;;;;;;;9.57;3.25;;;15.20;46.30;;;;;;5033739;28;20029;-77
2022/05/19 04:34:55;;;;;;;10.93;2.80;;;15.30;46.40;;;;;;5033519;28;20029;-76
2022/05/19 04:37:21;;;;;;;5.53;2.40;;;15.40;46.20;;;;;;5033837;28;20025;-76
2022/05/19 04:39:47;;;;;;;4.75;2.47;;;15.50;46.10;;;;;;5032414;28;20511;-76
2022/05/19 04:42:14;;;;;;;3.75;2.40;;;15.60;46.00;;;;;;5044653;28;20029;-76
2022/05/19 04:44:40;;;;;;;12.48;2.38;;;15.70;45.90;;;;;;5053433;28;20025;-76
2022/05/19 04:47:07;;;;;;;6.78;1.98;;;15.70;45.80;;;;;;5053401;28;20324;-76
2022/05/19 04:49:33;;;;;;;8.70;2.92;;;15.80;45.70;;;;;;5053470;28;20009;-76
2022/05/19 04:51:59;;;;;;;11.00;3.05;;;15.90;45.70;;;;;;5040955;28;20022;-76
2022/05/19 04:54:24;;;;;;;10.07;3.20;;;16.00;45.40;;;;;;5032142;28;20013;-76
2022/05/19 04:56:51;;;;;;;10.02;3.65;;;16.10;45.30;;;;;;5032098;28;20041;-76
2022/05/19 04:59:17;;;;;;;8.63;2.70;;;16.20;45.10;;;;;;5031822;28;20132;-76
2022/05/19 05:01:45;;;;;;;5.32;2.75;;;16.20;45.10;;;;;;5033216;28;20081;-76
2022/05/19 05:04:11;;;;;;;8.55;2.75;;;16.30;45.20;;;;;;5031869;28;20033;-76
2022/05/19 05:06:37;;;;;;;11.23;4.68;;;16.40;45.20;;;;;;5031912;28;20021;-76
2022/05/19 05:09:03;;;;;;;13.57;3.47;;;16.50;45.10;;;;;;5033203;28;20025;-76
2022/05/19 05:11:29;;;;;;;13.38;3.85;;;16.60;44.90;;;;;;5033138;28;20022;-76
2022/05/19 05:13:55;;;;;;;12.82;3.80;;;16.60;44.70;;;;;;5033064;28;20043;-76
2022/05/19 05:16:21;;;;;;;12.93;3.72;;;16.70;44.40;;;;;;5044465;28;20029;-76
2022/05/19 05:18:47;;;;;;;13.02;3.75;;;16.70;44.30;;;;;;5052945;28;20021;-76
2022/05/19 05:21:13;;;;;;;11.25;3.30;;;16.70;44.20;;;;;;5052851;28;20096;-76
2022/05/19 05:23:40;;;;;;;14.82;3.72;;;16.80;44.10;;;;;;5052730;28;20379;-76
2022/05/19 05:26:07;;;;;;;16.67;3.97;;;16.90;44.00;;;;;;5052814;28;20028;-76
2022/05/19 05:28:37;;;;;;;12.02;3.72;;;16.90;43.90;;;;;;5051569;28;20067;-77
2022/05/19 05:31:04;;;;;;;13.68;3.40;;;17.00;44.00;;;;;;5052199;28;20024;-76
2022/05/19 05:33:29;;;;;;;15.75;3.88;;;17.00;43.90;;;;;;5051467;28;20112;-76
2022/05/19 05:35:58;;;;;;;11.15;3.05;;;17.00;43.30;;;;;;5052612;28;20107;-76
2022/05/19 05:38:24;;;;;;;9.15;3.30;;;17.00;43.00;;;;;;5052592;28;20379;-76
2022/05/19 05:40:50;;;;;;;30.35;3.83;;;17.10;43.00;;;;;;5051117;28;20059;-76
2022/05/19 05:43:19;;;;;;;7.97;3.08;;;17.10;42.70;;;;;;5050814;28;20103;-76
2022/05/19 05:45:46;;;;;;;10.88;2.55;;;17.20;42.70;;;;;;5052319;28;20024;-76
2022/05/19 05:48:13;;;;;;;7.60;2.63;;;17.20;42.70;;;;;;5052463;28;20025;-76
2022/05/19 05:50:39;;;;;;;11.77;2.70;;;17.30;42.70;;;;;;5052212;28;20044;-76
2022/05/19 05:53:06;;;;;;;4.28;2.15;;;17.30;42.70;;;;;;5052365;28;20101;-76
2022/05/19 05:55:33;;;;;;;9.18;2.90;;;17.40;42.50;;;;;;5052369;28;20021;-76
2022/05/19 05:57:59;;;;;;;5.93;2.00;;;17.50;42.20;;;;;;5057869;28;20036;-76
2022/05/19 06:00:25;;;;;;;6.18;2.20;;;17.50;42.10;;;;;;5059590;28;20025;-76
2022/05/19 06:02:51;;;;;;;10.07;2.53;;;17.60;42.20;;;;;;5072462;28;20039;-76
2022/05/19 06:05:18;;;;;;;4.22;2.22;;;17.60;41.90;;;;;;5070346;28;20036;-76
2022/05/19 06:07:44;;;;;;;7.10;2.70;;;17.70;41.70;;;;;;5072145;28;20020;-76
2022/05/19 06:10:12;;;;;;;12.73;2.72;;;17.80;41.70;;;;;;5072263;28;20032;-76
2022/05/19 06:12:39;;;;;;;11.48;3.17;;;17.90;41.90;;;;;;5072420;28;20377;-77
2022/05/19 06:15:06;;;;;;;7.78;2.55;;;17.90;41.60;;;;;;5054471;28;20016;-76
2022/05/19 06:17:32;;;;;;;8.30;2.90;;;18.00;41.60;;;;;;5072050;28;20024;-76
2022/05/19 06:19:57;;;;;;;10.73;2.80;;;18.10;41.40;;;;;;5055838;28;20070;-76
2022/05/19 06:22:23;;;;;;;11.00;2.65;;;18.20;41.40;;;;;;5052237;28;20032;-76
2022/05/19 06:24:50;;;;;;;14.45;2.80;;;18.20;41.30;;;;;;5051970;28;20025;-76
2022/05/19 06:27:16;;;;;;;7.45;2.65;;;18.30;41.30;;;;;;5052084;28;20077;-76
2022/05/19 06:29:42;;;;;;;8.90;2.92;;;18.40;41.10;;;;;;5052026;28;20048;-76
2022/05/19 06:32:10;;;;;;;8.52;2.65;;;18.50;41.10;;;;;;5052404;28;20028;-76
2022/05/19 06:34:36;;;;;;;13.45;3.63;;;18.50;41.00;;;;;;5052139;28;20027;-76
2022/05/19 06:37:02;;;;;;;10.60;3.05;;;18.60;40.90;;;;;;5052084;28;20475;-76
2022/05/19 06:39:29;;;;;;;8.90;3.15;;;18.70;40.70;;;;;;5063526;28;20083;-76
2022/05/19 06:42:00;;;;;;;11.65;3.60;;;18.80;40.70;;;;;;5054588;28;20032;-77
2022/05/19 06:44:31;;;;;;;8.82;2.83;;;18.80;40.10;;;;;;5057764;28;20029;-76
2022/05/19 06:46:58;;;;;;;5.88;2.80;;;18.90;40.00;;;;;;5057684;28;20020;-76
2022/05/19 06:49:24;;;;;;;12.82;3.03;;;19.00;39.90;;;;;;5057709;28;20016;-77
2022/05/19 06:51:50;;;;;;;10.80;3.42;;;19.10;40.10;;;;;;5075809;28;20020;-77
2022/05/19 06:54:16;;;;;;;7.45;2.90;;;19.10;40.00;;;;;;5064669;28;20088;-76
2022/05/19 06:56:41;;;;;;;9.85;3.13;;;19.20;40.20;;;;;;5037844;28;20083;-76
2022/05/19 06:59:07;;;;;;;9.65;3.65;;;19.30;40.20;;;;;;5055466;28;20051;-75
2022/05/19 07:01:34;;;;;;;9.75;3.63;;;19.40;40.10;;;;;;5037652;28;20025;-74
2022/05/19 07:04:00;;;;;;;7.93;3.30;;;19.50;39.90;;;;;;5055316;28;20021;-74
2022/05/19 07:06:27;;;;;;;9.65;3.20;;;19.60;39.80;;;;;;5055421;28;20029;-76
2022/05/19 07:08:52;;;;;;;10.70;3.58;;;19.70;39.70;;;;;;5055633;28;20025;-76
2022/05/19 07:11:27;;;;;;;8.75;3.60;;;19.80;39.60;;;;;;5055438;28;20021;-76
2022/05/19 07:14:03;;;;;;;8.73;3.08;;;19.80;39.30;;;;;;5055490;28;20018;-74
2022/05/19 07:16:30;;;;;;;11.82;3.60;;;19.90;39.20;;;;;;5068006;28;20046;-75
2022/05/19 07:20:43;;;;;;;9.35;3.58;;;20.00;38.80;;;;;;5075307;28;20063;-75
2022/05/19 07:21:43;;;;;;;19.45;3.70;;;20.10;38.60;;;;;;5075252;28;20021;-76
2022/05/19 07:24:15;;;;;;;4.88;2.55;;;20.20;38.80;;;;;;5057137;28;20537;-75
2022/05/19 07:26:48;;;;;;;11.50;3.05;;;20.30;39.10;;;;;;5057641;28;20363;-75
2022/05/19 07:29:14;;;;;;;9.02;3.55;;;20.30;38.80;;;;;;5057164;28;20027;-76
2022/05/19 07:31:41;;;;;;;10.02;4.00;;;20.50;39.00;;;;;;5075117;28;20024;-75
2022/05/19 07:34:10;;;;;;;12.05;4.65;;;20.50;38.90;;;;;;5075095;28;20025;-76
2022/05/19 07:36:36;;;;;;;16.30;5.18;;;20.70;38.60;;;;;;5075058;28;20025;-76
2022/05/19 07:39:02;;;;;;;18.42;5.22;;;20.70;38.40;;;;;;5074942;28;20070;-75
2022/05/19 07:41:30;;;;;;;18.27;6.82;;;20.90;37.80;;;;;;5074906;28;20016;-76
2022/05/19 07:43:57;;;;;;;16.52;5.97;;;21.00;37.60;;;;;;5046610;28;20498;-76
2022/05/19 07:46:25;;;;;;;16.23;6.38;;;21.10;37.60;;;;;;5037249;28;20025;-77
2022/05/19 07:48:54;;;;;;;14.05;6.45;;;21.20;37.40;;;;;;5074714;28;20028;-77
2022/05/19 07:51:25;;;;;;;16.45;4.97;;;21.30;37.50;;;;;;5055128;28;20075;-74
2022/05/19 07:53:51;;;;;;;13.55;4.80;;;21.40;37.40;;;;;;5055605;28;20018;-76
2022/05/19 07:56:18;;;;;;;12.90;4.60;;;21.50;37.40;;;;;;5036588;28;20130;-76
2022/05/19 07:58:45;;;;;;;7.32;3.67;;;21.60;37.20;;;;;;5036521;28;20137;-76
2022/05/19 08:01:11;;;;;;;10.30;3.65;;;21.70;36.80;;;;;;5054557;28;20032;-76
2022/05/19 08:03:37;;;;;;;9.40;3.95;;;21.80;36.70;;;;;;5054407;28;20025;-76
2022/05/19 08:06:04;;;;;;;9.40;3.30;;;21.90;36.60;;;;;;5036546;28;20032;-75
2022/05/19 08:08:29;;;;;;;11.35;3.75;;;22.00;37.20;;;;;;5054357;28;20021;-76
2022/05/19 08:10:57;;;;;;;6.63;3.58;;;22.10;36.20;;;;;;5054421;28;20021;-76
2022/05/19 08:16:07;;;;;;;7.10;3.00;;;22.30;35.70;;;;;;5074372;28;20040;-76
2022/05/19 08:18:33;;;;;;;6.03;2.40;;;22.40;35.10;;;;;;5054057;28;20086;-76
2022/05/19 08:21:02;;;;;;;7.15;2.50;;;22.50;35.20;;;;;;5056694;28;20032;-77
2022/05/19 08:23:34;;;;;;;6.47;2.38;;;22.50;35.20;;;;;;5036213;28;20021;-76
2022/05/19 08:26:00;;;;;;;7.18;2.67;;;22.60;35.60;;;;;;5036060;28;20037;-77
2022/05/19 08:28:31;;;;;;;6.78;2.33;;;22.70;35.50;;;;;;5054081;28;20188;-74
2022/05/19 08:31:02;;;;;;;5.88;2.05;;;22.80;34.80;;;;;;5037187;28;20009;-74
2022/05/19 08:33:29;;;;;;;5.50;2.28;;;22.90;34.30;;;;;;5036013;28;20059;-76
2022/05/19 08:35:55;;;;;;;3.25;2.22;;;22.90;34.10;;;;;;5059334;28;20039;-75
2022/05/19 08:38:22;;;;;;;4.15;1.83;;;23.00;33.70;;;;;;5073759;28;20416;-76
2022/05/19 08:41:03;;;;;;;5.55;2.42;;;23.00;34.20;;;;;;5073769;28;20016;-76
2022/05/19 08:43:50;;;;;;;4.90;2.40;;;23.00;33.70;;;;;;5073569;28;20020;-75
2022/05/19 08:46:23;;;;;;;6.57;2.22;;;23.10;33.50;;;;;;5073591;28;20443;-76
2022/05/19 08:48:53;;;;;;;12.15;2.90;;;23.20;33.80;;;;;;5073325;28;20104;-75
2022/05/19 08:51:25;;;;;;;7.80;2.60;;;23.20;33.40;;;;;;5072381;28;20432;-76
2022/05/19 08:53:55;;;;;;;4.13;2.58;;;23.30;33.80;;;;;;5077146;28;20031;-76
2022/05/19 08:56:28;;;;;;;11.70;2.80;;;23.40;33.40;;;;;;5049089;28;20021;-76
2022/05/19 08:59:13;;;;;;;4.00;2.25;;;23.40;33.20;;;;;;5046615;28;20422;-76
2022/05/19 09:01:56;;;;;;;4.47;1.83;;;23.50;33.50;;;;;;5034963;28;20082;-76
2022/05/19 09:04:27;;;;;;;3.95;2.10;;;23.50;33.10;;;;;;5053105;28;20031;-76
2022/05/19 09:10:16;;;;;;;5.80;2.20;;;23.70;33.70;;;;;;5057877;28;20042;-77
2022/05/19 09:12:45;;;;;;;10.13;2.20;;;23.70;33.30;;;;;;5049635;28;20032;-76
2022/05/19 09:15:11;;;;;;;5.07;2.05;;;23.80;33.40;;;;;;5053474;28;20067;-76
2022/05/19 09:17:40;;;;;;;4.93;2.40;;;23.90;33.40;;;;;;5064408;28;20029;-77
2022/05/19 09:20:25;;;;;;;5.35;2.05;;;23.90;33.60;;;;;;5073018;28;20028;-77
2022/05/19 09:22:51;;;;;;;6.50;2.40;;;24.00;33.20;;;;;;5058010;28;20021;-74
2022/05/19 09:25:21;;;;;;;4.45;2.30;;;24.10;32.90;;;;;;5053263;28;20388;-78
2022/05/19 09:27:49;;;;;;;4.68;2.20;;;24.10;33.20;;;;;;5064228;28;20078;-77
2022/05/19 09:30:28;;;;;;;3.83;2.53;;;24.20;33.10;;;;;;5072047;28;20044;-78
2022/05/19 09:32:56;;;;;;;5.57;2.10;;;24.30;33.20;;;;;;5064474;28;20384;-77
2022/05/19 09:35:38;;;;;;;4.75;2.60;;;24.40;32.90;;;;;;5034525;28;20029;-77
2022/05/19 09:38:26;;;;;;;4.75;2.20;;;24.40;32.90;;;;;;5068675;28;20461;-76
2022/05/19 09:40:58;;;;;;;6.22;2.33;;;24.50;32.80;;;;;;5054355;28;20033;-76
2022/05/19 09:43:32;;;;;;;6.55;2.05;;;24.60;32.70;;;;;;5042868;28;20036;-77
2022/05/19 09:46:09;;;;;;;10.80;2.78;;;24.60;33.00;;;;;;5084847;28;20563;-76
2022/05/19 09:48:41;;;;;;;18.15;3.00;;;24.70;32.70;;;;;;5084256;28;20024;-76
2022/05/19 09:51:14;;;;;;;10.48;2.88;;;24.80;32.40;;;;;;5073064;28;20013;-76
2022/05/19 09:53:48;;;;;;;14.60;4.23;;;24.80;32.00;;;;;;5072808;28;20108;-76
2022/05/19 09:56:19;;;;;;;7.10;3.22;;;24.90;32.20;;;;;;5054636;28;20432;-76
2022/05/19 09:58:51;;;;;;;6.40;3.20;;;24.90;32.40;;;;;;5080487;28;20438;-78
2022/05/19 10:01:33;;;;;;;4.75;2.63;;;25.00;32.10;;;;;;5071947;28;20017;-77
2022/05/19 10:04:01;;;;;;;6.40;2.58;;;25.00;32.30;;;;;;5069881;28;20207;-78
2022/05/19 10:06:52;;;;;;;4.47;2.22;;;25.10;32.70;;;;;;5067392;28;20013;-79
2022/05/19 10:09:29;;;;;;;4.88;2.60;;;25.20;32.60;;;;;;5071067;28;20025;-78
2022/05/19 10:12:06;;;;;;;5.82;2.20;;;25.30;32.20;;;;;;5091596;28;20090;-78
2022/05/19 10:14:33;;;;;;;3.30;1.95;;;25.40;32.10;;;;;;5073018;28;20471;-77
2022/05/19 10:17:15;;;;;;;4.75;2.10;;;25.40;31.60;;;;;;5080696;28;20477;-78
2022/05/19 10:20:09;;;;;;;4.68;2.67;;;25.50;32.10;;;;;;5081961;28;20083;-77
2022/05/19 10:22:53;;;;;;;;;;;25.50;32.30;;;;;;5061581;28;20514;-75
2022/05/19 10:25:41;;;;;;;10.35;3.55;;;25.60;32.80;;;;;;5063894;28;19919;-77
2022/05/19 10:31:22;;;;;;;7.65;3.15;;;25.80;32.20;;;;;;5080210;28;20119;-77
2022/05/19 10:34:06;;;;;;;4.18;2.65;;;25.80;32.00;;;;;;5047844;28;20031;-79
2022/05/19 10:36:43;;;;;;;4.07;2.60;;;25.90;32.60;;;;;;5056110;28;20028;-76
2022/05/19 10:39:39;;;;;;;4.28;2.30;;;25.90;32.20;;;;;;5056119;28;20422;-77
2022/05/19 10:42:29;;;;;;;11.20;2.22;;;26.00;31.50;;;;;;5055898;28;20025;-77
2022/05/19 10:45:04;;;;;;;7.97;2.78;;;26.00;31.20;;;;;;5058409;28;20059;-76
2022/05/19 10:47:35;;;;;;;4.32;2.13;;;26.10;31.80;;;;;;5074474;28;20025;-76
2022/05/19 10:50:16;;;;;;;4.75;2.22;;;26.20;32.10;;;;;;5074801;28;20099;-77
2022/05/19 10:52:55;;;;;;;5.88;2.70;;;26.20;32.00;;;;;;5074073;28;20016;-76
2022/05/19 10:55:33;;;;;;;4.18;2.30;;;26.30;31.90;;;;;;5057863;28;20035;-77
2022/05/19 10:58:33;;;;;;;8.68;2.55;;;26.30;32.00;;;;;;5075617;28;20040;-78
2022/05/19 11:00:58;;;;;;;2.97;1.90;;;26.40;31.70;;;;;;5058133;28;20055;-77
2022/05/19 11:03:46;;;;;;;3.25;2.10;;;26.50;31.50;;;;;;5057608;28;20420;-77
2022/05/19 11:06:34;;;;;;;3.92;1.92;;;26.50;31.60;;;;;;5075429;28;20398;-78
2022/05/19 11:09:33;;;;;;;6.90;2.20;;;26.60;31.80;;;;;;5057681;28;20039;-78
2022/05/19 11:12:13;;;;;;;8.38;2.40;;;26.70;31.20;;;;;;5075481;28;20051;-79
2022/05/19 11:15:05;;;;;;;3.92;2.05;;;26.80;31.20;;;;;;5057610;28;20028;-77
2022/05/19 11:18:02;;;;;;;6.50;2.08;;;26.80;31.60;;;;;;5075521;28;20032;-77
2022/05/19 11:20:53;;;;;;;3.55;1.60;;;26.90;31.40;;;;;;5075412;28;20025;-77
2022/05/19 11:23:37;;;;;;;3.38;1.88;;;26.90;30.50;;;;;;5049440;28;20037;-77
2022/05/19 11:26:27;;;;;;;4.80;2.60;;;27.00;30.90;;;;;;5037118;28;20098;-77
2022/05/19 11:29:05;;;;;;;4.30;1.90;;;27.00;30.90;;;;;;5036434;28;20025;-77
2022/05/19 11:31:46;;;;;;;4.50;1.98;;;27.10;31.00;;;;;;5040889;28;20023;-77
2022/05/19 11:34:20;;;;;;;3.70;1.80;;;27.10;31.00;;;;;;5074698;28;20055;-77
2022/05/19 11:36:56;;;;;;;3.60;2.50;;;27.20;31.00;;;;;;5056827;28;20020;-77
2022/05/19 11:39:39;;;;;;;10.23;2.50;;;27.20;30.80;;;;;;5073192;28;20027;-78
2022/05/19 11:42:40;;;;;;;4.63;2.40;;;27.40;30.10;;;;;;5054229;28;20045;-77
2022/05/19 11:45:14;;;;;;;4.00;2.03;;;27.40;30.50;;;;;;5002273;28;20398;-78
2022/05/19 11:56:25;;;;;;;9.35;2.60;;;27.70;29.70;;;;;;5054741;28;20087;-77
2022/05/19 11:58:51;;;;;;;5.18;2.78;;;27.80;29.60;;;;;;5054420;28;20118;-76
2022/05/19 12:01:26;;;;;;;5.78;2.42;;;27.80;29.30;;;;;;5054589;28;20097;-76
2022/05/19 12:04:13;;;;;;;4.78;2.58;;;27.90;29.20;;;;;;5054452;28;20025;-76
2022/05/19 12:06:54;;;;;;;8.25;2.63;;;27.90;29.20;;;;;;5054508;28;20066;-76
2022/05/19 12:09:34;;;;;;;4.78;2.10;;;28.00;29.40;;;;;;5036559;28;20061;-77
2022/05/19 12:12:25;;;;;;;4.82;2.63;;;28.10;29.30;;;;;;5054497;28;20434;-76
2022/05/19 12:15:04;;;;;;;5.28;2.33;;;28.10;29.20;;;;;;5036612;28;20033;-76
2022/05/19 12:17:38;;;;;;;4.95;2.50;;;28.20;28.70;;;;;;5054242;28;20022;-76
2022/05/19 12:20:32;;;;;;;8.13;2.40;;;28.30;28.30;;;;;;5055032;28;20075;-76
2022/05/19 12:23:17;;;;;;;5.35;2.60;;;28.40;29.10;;;;;;5054152;28;20028;-76
2022/05/19 12:25:45;;;;;;;8.48;2.42;;;28.50;29.20;;;;;;5054071;28;20035;-76
2022/05/19 12:28:14;;;;;;;7.00;2.53;;;28.60;28.60;;;;;;5054047;28;20028;-76
2022/05/19 12:33:51;;;;;;;10.95;2.55;;;28.70;28.30;;;;;;5073944;28;20029;-76
2022/05/19 12:36:24;;;;;;;7.10;2.53;;;28.80;28.50;;;;;;5073820;28;20093;-76
2022/05/19 12:38:51;;;;;;;4.88;2.28;;;28.90;28.50;;;;;;5073654;28;20024;-76
2022/05/19 12:41:23;;;;;;;8.82;2.92;;;29.00;28.30;;;;;;5073056;28;20524;-76
2022/05/19 12:43:49;;;;;;;6.22;2.65;;;29.10;27.80;;;;;;5073635;28;20036;-77
2022/05/19 12:46:33;;;;;;;6.40;2.92;;;29.20;27.70;;;;;;5055591;28;20025;-77
2022/05/19 12:49:14;;;;;;;;;;;29.30;27.70;;;;;;5056030;28;20366;-77
2022/05/19 12:51:52;;;;;;;5.65;2.22;;;29.40;28.20;;;;;;5073559;28;19912;-77
2022/05/19 12:54:19;;;;;;;8.95;2.92;;;29.50;27.80;;;;;;5073512;28;20029;-77
2022/05/19 12:56:46;;;;;;;10.30;3.35;;;29.60;27.70;;;;;;5055484;28;20024;-77
2022/05/19 12:59:33;;;;;;;7.63;3.10;;;29.70;27.60;;;;;;5073147;28;20032;-77
2022/05/19 13:02:17;;;;;;;8.32;3.05;;;29.80;27.30;;;;;;5151788;27;20432;-76
2022/05/19 13:04:48;;;;;;;8.48;2.78;;;30.00;27.20;;;;;;5131073;28;20031;-77
2022/05/19 13:07:33;;;;;;;10.07;2.78;;;30.10;27.70;;;;;;5112622;28;20027;-78
2022/05/19 13:10:16;;;;;;;7.70;2.97;;;30.30;27.30;;;;;;5112643;28;20373;-75
2022/05/19 13:12:49;;;;;;;13.68;3.92;;;30.40;26.80;;;;;;5130924;28;20047;-77
2022/05/19 13:15:26;;;;;;;7.25;2.72;;;30.50;27.10;;;;;;5130842;28;20038;-77
2022/05/19 13:17:53;;;;;;;13.23;3.03;;;30.70;26.90;;;;;;5112539;28;20486;-75
2022/05/19 13:20:43;;;;;;;7.32;2.53;;;30.80;27.10;;;;;;5112436;28;20035;-75
2022/05/19 13:23:27;;;;;;;7.78;2.72;;;30.90;26.60;;;;;;5129953;28;20124;-78
2022/05/19 13:26:02;;;;;;;3.50;2.15;;;31.00;26.50;;;;;;5130618;28;20020;-74
2022/05/19 13:31:27;;;;;;;7.20;3.20;;;31.50;27.20;;;;;;5109830;28;20039;-75